createdAt,value
2017-11-25T18:47:05.642Z,10.80
2017-11-25T18:49:33.048Z,10.30
2017-11-25T18:52:00.576Z,11.80
2017-11-25T18:54:27.988Z,9.87
2017-11-25T18:56:55.510Z,10.13
2017-11-25T18:59:22.980Z,10.23
2017-11-25T19:01:50.461Z,9.97
2017-11-25T19:04:17.897Z,11.13
2017-11-25T19:06:45.363Z,10.90
2017-11-25T19:09:12.763Z,10.77
2017-11-25T19:11:40.211Z,11.20
2017-11-25T19:14:07.610Z,11.13
2017-11-25T19:16:35.108Z,10.53
2017-11-25T19:19:02.584Z,10.77
2017-11-25T19:21:30.012Z,9.90
2017-11-25T19:23:57.404Z,9.43
2017-11-25T19:26:24.837Z,10.93
2017-11-25T19:28:52.312Z,9.60
2017-11-25T19:31:19.959Z,18.47
2017-11-25T19:33:47.741Z,11.07
2017-11-25T19:36:15.177Z,9.77
2017-11-25T19:38:42.656Z,11.00
2017-11-25T19:41:10.168Z,9.33
2017-11-25T19:43:37.622Z,11.23
2017-11-25T19:46:05.048Z,11.03
2017-11-25T19:48:32.700Z,7.93
2017-11-25T19:51:00.097Z,8.40
2017-11-25T19:53:27.540Z,7.20
2017-11-25T19:55:54.998Z,7.47
2017-11-25T19:58:22.432Z,7.63
2017-11-25T20:00:50.005Z,8.43
2017-11-25T20:03:17.466Z,8.37
2017-11-25T20:05:44.869Z,10.70
2017-11-25T20:08:12.489Z,9.10
2017-11-25T20:10:39.880Z,7.00
2017-11-25T20:13:07.398Z,8.13
2017-11-25T20:15:34.802Z,8.03
2017-11-25T20:18:02.240Z,10.13
2017-11-25T20:20:29.703Z,7.63
2017-11-25T20:22:57.171Z,9.60
2017-11-25T20:25:24.560Z,7.20
2017-11-25T20:27:51.987Z,11.47
2017-11-25T20:30:19.404Z,8.47
2017-11-25T20:32:46.968Z,7.23
2017-11-25T20:35:14.470Z,7.63
2017-11-25T20:37:41.902Z,8.20
2017-11-25T20:40:09.354Z,7.47
2017-11-25T20:42:37.029Z,9.77
2017-11-25T20:45:04.473Z,9.93
2017-11-25T20:47:31.902Z,7.90
2017-11-25T20:49:59.468Z,9.83
2017-11-25T20:52:26.864Z,12.13
2017-11-25T20:54:54.385Z,9.20
2017-11-25T20:57:21.779Z,8.03
2017-11-25T20:59:49.253Z,7.17
2017-11-25T21:02:16.709Z,10.00
2017-11-25T21:04:44.159Z,8.00
2017-11-25T21:07:11.559Z,9.43
2017-11-25T21:09:39.008Z,8.73
2017-11-25T21:12:06.450Z,8.13
2017-11-25T21:14:33.948Z,9.70
2017-11-25T21:17:01.418Z,8.20
2017-11-25T21:19:28.863Z,7.77
2017-11-25T21:21:56.258Z,8.50
2017-11-25T21:24:23.717Z,8.03
2017-11-25T21:26:51.120Z,8.33
2017-11-25T21:29:18.775Z,9.70
2017-11-25T21:31:46.242Z,6.73
2017-11-25T21:34:13.797Z,7.03
2017-11-25T21:36:41.234Z,7.43
2017-11-25T21:39:08.685Z,10.23
2017-11-25T21:41:36.089Z,6.97
2017-11-25T21:44:03.572Z,6.33
2017-11-25T21:46:31.043Z,7.47
2017-11-25T21:48:58.515Z,7.07
2017-11-25T21:51:25.922Z,4.83
2017-11-25T21:53:53.394Z,5.33
2017-11-25T21:56:20.792Z,5.30
2017-11-25T21:58:48.231Z,6.47
2017-11-25T22:01:15.697Z,7.27
2017-11-25T22:03:43.136Z,5.90
2017-11-25T22:06:10.609Z,6.77
2017-11-25T22:08:38.076Z,6.07
2017-11-25T22:11:05.544Z,6.00
2017-11-25T22:13:33.039Z,6.60
2017-11-25T22:16:00.465Z,5.80
2017-11-25T22:18:27.911Z,8.57
2017-11-25T22:20:55.386Z,6.00
2017-11-25T22:23:22.792Z,8.27
2017-11-25T22:25:50.256Z,7.20
2017-11-25T22:28:17.814Z,6.23
2017-11-25T22:30:45.416Z,5.47
2017-11-25T22:33:12.988Z,7.13
2017-11-25T22:35:40.451Z,7.07
2017-11-25T22:38:07.847Z,7.63
2017-11-25T22:40:35.424Z,6.43
2017-11-25T22:43:02.883Z,7.77
2017-11-25T22:45:30.362Z,7.60
2017-11-25T22:47:57.783Z,6.27
2017-11-25T22:50:25.278Z,7.77
2017-11-25T22:52:52.721Z,8.57
2017-11-25T22:55:20.264Z,5.80
2017-11-25T22:57:47.726Z,5.30
2017-11-25T23:00:15.377Z,6.97
2017-11-25T23:02:42.821Z,5.30
2017-11-25T23:05:10.300Z,5.07
2017-11-25T23:07:37.713Z,4.80
2017-11-25T23:10:05.132Z,5.67
2017-11-25T23:12:32.566Z,6.00
2017-11-25T23:14:59.972Z,6.50
2017-11-25T23:17:27.420Z,5.07
2017-11-25T23:19:54.809Z,5.17
2017-11-25T23:22:22.320Z,4.40
2017-11-25T23:24:50.199Z,5.20
2017-11-25T23:27:17.740Z,4.57
2017-11-25T23:29:45.281Z,9.07
2017-11-25T23:32:12.774Z,7.60
2017-11-25T23:34:40.165Z,3.57
2017-11-25T23:37:07.738Z,4.47
2017-11-25T23:39:35.293Z,4.10
2017-11-25T23:42:02.707Z,3.90
2017-11-25T23:44:30.095Z,4.43
2017-11-25T23:46:57.531Z,3.70
2017-11-25T23:49:24.924Z,3.07
2017-11-25T23:51:52.390Z,5.63
2017-11-25T23:54:20.128Z,5.07
2017-11-25T23:56:47.674Z,2.77
2017-11-25T23:59:15.236Z,3.27
